Nunda, SD (57050)

12:04 PM CDT on July 25, 2014 (GMT -0500)
Madison Municipal (KMDS) Elev 1716 ft | 44.01 °N, 97.08 °W | Change Station

Current weather conditions updated 34 minutes ago

Clear
Clear
75 °F
Feels Like 75 °F
N
8
Wind Variable Wind from South

Today is forecast to be Much Warmer than yesterday.

Today
High -- | Low -- °F
--% Chance of Precip.
Yesterday
High -- | Low -- °F
Precip. -- in
6:08 AM 9:00 PM
Waning Crescent, 1% visible
Pressure 29.80 in
Visibility 10.0 miles
Clouds Clear
Dew Point 70 °F
Humidity 83%
Rainfall 0.00 in
Snow Depth Not available.
UV 9 out of 12
Pollen 5.00 out of 12
Air Quality Not available.
Flu Activity Not available.
METAR KMDS 251630Z AUTO 18007KT 10SM CLR 24/21 A2980 RMK AO2

More Conditions Fewer Conditions

Pressure 29.80 in
Visibility 10.0 miles
Clouds Clear
Dew Point 70 °F
Humidity 83%
Rainfall 0.00 in
Snow Depth Not available.
UV 9 out of 12
Pollen 5.00 out of 12
Air Quality Not available.
Flu Activity Not available.
METAR KMDS 251630Z AUTO 18007KT 10SM CLR 24/21 A2980 RMK AO2

More Conditions Fewer Conditions

10-Day Weather Forecast

Almanac

Astronomy

Jul. 25, 2014 Rise Set
Actual Time 6:08 AM CDT 9:00 PM CDT
Civil Twilight 5:34 AM CDT 9:33 PM CDT
Nautical Twilight 4:51 AM CDT 10:16 PM CDT
Astronomical Twilight 4:00 AM CDT 11:06 PM CDT
Moon 5:10 AM CDT 7:55 PM CDT
Length of Visible Light 15h 59m
Length of Day
14h 51m
Tomorrow will be 2m 5s shorter.
Waning Crescent, 1% of the Moon is Illuminated
Today
Waning Crescent
Jul 26
New
Aug 3
First Quarter
Aug 10
Full
Aug 17
Last Quarter

Today's Extremes

State Highs State Lows

Community

WunderPhotos

Upload Photos

1,737,364 photos uploaded!

Nearby

Snow Depth

Station Depth Elevation
Blind Park 1 in 6890 ft

Earthquake Activity

City Distance Mag. Time & Date
No recent earthquake activity has been reported nearby.
Minimum magnitude displayed is 2.5.

Coastal Water Temperatures

Place Temperature
No Stations Reporting

Nearby Weather Stations

Station Location Temp. Heat Index Dew Point Humidity Wind Precip. Elev Updated Type
Volga, SD 81.0 °F 84 °F 70 °F 69% South  at  1.0 mph 0.00 in / hr 1655 ft 12:01 PM CDT Normal
Valley View, Brookings, SD, Brookings, SD 78.1 °F 80 °F 70 °F 76% SW  at  6.9 mph 0.00 in / hr 1601 ft 12:04 PM CDT Rapid Fire
HADS BIG SIOUX RIVER NEAR BROOKINGS 1 SD, Brookings, SD 73 °F 71 °F - - North  at  - 0.00 in / hr 1549 ft 10:45 AM CDT MADIS
Indian Hills, Brookings, SD 80.3 °F 84 °F 71 °F 73% SE  at  1.0 mph 0.00 in / hr 1650 ft 12:00 PM CDT Normal
Neighborhood, Brookings, SD 77.4 °F 79 °F 70 °F 77% South  at  0.0 mph 0.00 in / hr 1627 ft 12:02 PM CDT Rapid Fire
Brown Farm LTD., Arlington, SD 79.1 °F 82 °F 71 °F 77% SSW  at  2.0 mph 0.00 in / hr 1808 ft 12:04 PM CDT Rapid Fire

Show More Stations Show Fewer Stations